Time;durP1;ratioP1;P1;durP2;ratioP2;P2;SDS_P1;SDS_P2;PMS_P1;PMS_P2;Temp;Humidity;BMP_temperature;BMP_pressure;BME280_temperature;BME280_humidity;BME280_pressure;Samples;Min_cycle;Max_cycle;Signal;HPM_P1;HPM_P2
2021/07/13 00:01:26;;;;;;;12.13;6.60;;;19.30;99.90;;;;;;5014519;28;20221;-69
2021/07/13 00:03:53;;;;;;;9.70;7.53;;;19.30;99.90;;;;;;5031727;28;20283;-70
2021/07/13 00:06:19;;;;;;;8.47;7.13;;;19.30;99.90;;;;;;5034429;28;20228;-70
2021/07/13 00:08:46;;;;;;;10.17;7.87;;;19.30;99.90;;;;;;5050194;28;20177;-70
2021/07/13 00:11:13;;;;;;;12.57;7.43;;;19.30;99.90;;;;;;5033404;28;20171;-70
2021/07/13 00:13:38;;;;;;;8.37;7.60;;;19.30;99.90;;;;;;5034290;28;20246;-69
2021/07/13 00:16:04;;;;;;;8.30;7.00;;;19.30;99.90;;;;;;5033400;28;20209;-69
2021/07/13 00:18:29;;;;;;;8.10;7.17;;;19.30;99.90;;;;;;5028901;28;20612;-70
2021/07/13 00:20:55;;;;;;;7.77;6.93;;;19.20;99.90;;;;;;5034207;28;20718;-69
2021/07/13 00:23:21;;;;;;;8.20;7.17;;;19.30;99.90;;;;;;5034024;28;20558;-70
2021/07/13 00:25:47;;;;;;;9.80;7.00;;;19.20;99.90;;;;;;5034223;28;20170;-70
2021/07/13 00:28:13;;;;;;;9.93;8.07;;;19.30;99.90;;;;;;5033995;28;20705;-70
2021/07/13 00:30:38;;;;;;;10.67;7.27;;;19.20;99.90;;;;;;5034586;28;20181;-69
2021/07/13 00:33:04;;;;;;;8.60;7.70;;;19.20;99.90;;;;;;5034669;28;20174;-69
2021/07/13 00:35:29;;;;;;;9.53;7.70;;;19.20;99.90;;;;;;5033999;28;20588;-69
2021/07/13 00:37:55;;;;;;;10.73;7.50;;;19.20;99.90;;;;;;5033990;28;20202;-69
2021/07/13 00:40:22;;;;;;;8.10;6.93;;;19.20;99.90;;;;;;5034071;28;20261;-69
2021/07/13 00:42:48;;;;;;;8.13;6.80;;;19.20;99.90;;;;;;5033688;28;20228;-69
2021/07/13 00:45:15;;;;;;;8.30;7.47;;;19.30;99.90;;;;;;5033776;28;20610;-69
2021/07/13 00:47:41;;;;;;;8.97;6.87;;;19.20;99.90;;;;;;5033796;28;20183;-69
2021/07/13 00:50:07;;;;;;;7.20;6.50;;;19.20;99.90;;;;;;5033545;28;20257;-69
2021/07/13 00:52:33;;;;;;;9.63;6.50;;;19.20;99.90;;;;;;5032378;28;20182;-69
2021/07/13 00:54:59;;;;;;;12.20;7.60;;;19.10;99.90;;;;;;5032223;28;20191;-69
2021/07/13 00:57:25;;;;;;;11.20;7.60;;;19.10;99.90;;;;;;5033712;28;20564;-70
2021/07/13 00:59:51;;;;;;;8.70;7.20;;;19.10;99.90;;;;;;5033542;28;20183;-69
2021/07/13 01:02:18;;;;;;;7.50;6.80;;;19.10;99.90;;;;;;5033467;28;20181;-69
2021/07/13 01:04:48;;;;;;;8.77;7.37;;;19.10;99.90;;;;;;5032982;28;20252;-69
2021/07/13 01:07:16;;;;;;;8.87;7.30;;;19.10;99.90;;;;;;5032834;28;20210;-69
2021/07/13 01:10:03;;;;;;;13.43;7.67;;;19.00;99.90;;;;;;5033407;28;20178;-67
2021/07/13 01:12:53;;;;;;;7.40;6.70;;;19.00;99.90;;;;;;5033159;28;20170;-70
2021/07/13 01:15:20;;;;;;;9.27;8.13;;;19.00;99.90;;;;;;5033380;28;20184;-70
2021/07/13 01:17:58;;;;;;;10.90;7.37;;;19.00;99.90;;;;;;5033119;28;20202;-70
2021/07/13 01:21:01;;;;;;;8.57;7.37;;;19.00;99.90;;;;;;5029346;28;20177;-70
2021/07/13 01:23:55;;;;;;;9.93;7.93;;;19.00;99.90;;;;;;5013122;28;20230;-69
2021/07/13 01:26:49;;;;;;;11.67;7.33;;;19.00;99.90;;;;;;5013032;28;20627;-69
2021/07/13 01:29:18;;;;;;;9.70;7.37;;;19.00;99.90;;;;;;5032972;28;20643;-69
2021/07/13 01:31:47;;;;;;;10.63;7.57;;;19.00;99.90;;;;;;5033098;28;20159;-69
2021/07/13 01:34:24;;;;;;;13.50;8.17;;;19.00;99.90;;;;;;5032623;28;20261;-69
2021/07/13 01:36:54;;;;;;;9.77;8.13;;;19.00;99.90;;;;;;5031725;28;20611;-69
2021/07/13 01:39:20;;;;;;;8.77;7.90;;;19.00;99.90;;;;;;5032987;28;20174;-69
2021/07/13 01:41:49;;;;;;;10.37;8.47;;;19.00;99.90;;;;;;5033391;28;20639;-69
2021/07/13 01:44:17;;;;;;;10.23;8.20;;;18.90;99.90;;;;;;5032694;28;20744;-69
2021/07/13 01:46:43;;;;;;;8.77;7.43;;;18.90;99.90;;;;;;5032804;28;20197;-70
2021/07/13 01:49:10;;;;;;;11.97;8.33;;;18.90;99.90;;;;;;5033096;28;20171;-70
2021/07/13 01:51:38;;;;;;;11.13;8.73;;;18.90;99.90;;;;;;5032464;28;20225;-68
2021/07/13 01:54:09;;;;;;;10.77;8.57;;;18.90;99.90;;;;;;5019255;28;20199;-69
2021/07/13 01:56:36;;;;;;;10.10;7.93;;;18.90;99.90;;;;;;5012967;28;20202;-67
2021/07/13 01:59:03;;;;;;;11.90;8.30;;;18.90;99.90;;;;;;5011554;28;20175;-68
2021/07/13 02:01:31;;;;;;;12.17;9.10;;;18.90;99.90;;;;;;5018555;28;20179;-70
2021/07/13 02:03:59;;;;;;;10.90;8.77;;;18.90;99.90;;;;;;5032572;28;20202;-68
2021/07/13 02:06:25;;;;;;;9.17;8.07;;;18.80;99.90;;;;;;5032590;28;20171;-68
2021/07/13 02:08:57;;;;;;;9.47;7.60;;;18.80;99.90;;;;;;5048277;28;20171;-68
2021/07/13 02:11:25;;;;;;;11.63;8.30;;;18.80;99.90;;;;;;5032352;28;20182;-68
2021/07/13 02:13:51;;;;;;;9.90;8.10;;;18.80;99.90;;;;;;5032059;28;20638;-68
2021/07/13 02:16:19;;;;;;;9.43;8.53;;;18.80;99.90;;;;;;5032177;28;20184;-68
2021/07/13 02:18:45;;;;;;;9.77;8.77;;;18.80;99.90;;;;;;5030736;28;20658;-68
2021/07/13 02:21:14;;;;;;;10.47;8.83;;;18.80;99.90;;;;;;5026188;28;20605;-68
2021/07/13 02:23:40;;;;;;;12.23;9.20;;;18.80;99.90;;;;;;5012759;28;20742;-68
2021/07/13 02:26:06;;;;;;;10.97;8.53;;;18.80;99.90;;;;;;5012114;28;20170;-68
2021/07/13 02:28:37;;;;;;;9.43;8.53;;;18.80;99.90;;;;;;5012306;28;20696;-68
2021/07/13 02:31:17;;;;;;;10.17;8.93;;;18.80;99.90;;;;;;5012596;28;20554;-68
2021/07/13 02:34:01;;;;;;;11.77;9.03;;;18.80;99.90;;;;;;5012409;28;20693;-68
2021/07/13 02:36:31;;;;;;;10.60;9.50;;;18.80;99.90;;;;;;5025871;28;20182;-69
2021/07/13 02:38:59;;;;;;;13.30;8.83;;;18.70;99.90;;;;;;5033433;28;20170;-68
2021/07/13 02:41:25;;;;;;;11.23;8.97;;;18.80;99.90;;;;;;5032568;28;20192;-68
2021/07/13 02:43:53;;;;;;;12.73;8.93;;;18.80;99.90;;;;;;5032921;28;20259;-69
2021/07/13 02:46:20;;;;;;;10.07;9.00;;;18.80;99.90;;;;;;5032627;28;20166;-69
2021/07/13 02:48:46;;;;;;;11.60;8.90;;;18.80;99.90;;;;;;5032127;28;20170;-68
2021/07/13 02:51:13;;;;;;;11.17;9.67;;;18.80;99.90;;;;;;5031470;28;20750;-68
2021/07/13 02:53:40;;;;;;;10.03;9.03;;;18.80;99.90;;;;;;5031179;28;20185;-69
2021/07/13 02:56:07;;;;;;;10.70;8.83;;;18.80;99.90;;;;;;5031672;28;20670;-69
2021/07/13 02:58:35;;;;;;;14.43;9.80;;;18.80;99.90;;;;;;5031626;28;20208;-69
2021/07/13 03:01:03;;;;;;;11.60;9.83;;;18.80;99.90;;;;;;5031708;28;20244;-68
2021/07/13 03:03:28;;;;;;;10.93;9.37;;;18.80;99.90;;;;;;5031279;28;20694;-67
2021/07/13 03:05:55;;;;;;;12.07;9.97;;;18.80;99.90;;;;;;5031930;28;20261;-67
2021/07/13 03:08:23;;;;;;;12.47;9.03;;;18.70;99.90;;;;;;5031712;28;20256;-68
2021/07/13 03:10:50;;;;;;;11.63;9.37;;;18.70;99.90;;;;;;5031444;28;20189;-67
2021/07/13 03:13:19;;;;;;;14.80;10.50;;;18.70;99.90;;;;;;5031297;28;20601;-68
2021/07/13 03:15:45;;;;;;;12.97;9.60;;;18.80;99.90;;;;;;5031606;28;20175;-68
2021/07/13 03:18:10;;;;;;;12.83;9.43;;;18.80;99.90;;;;;;5031903;28;20187;-67
2021/07/13 03:20:37;;;;;;;14.07;9.77;;;18.80;99.90;;;;;;5031285;28;20650;-68
2021/07/13 03:23:03;;;;;;;15.03;10.00;;;18.80;99.90;;;;;;5018081;28;20179;-68
2021/07/13 03:25:34;;;;;;;15.83;11.17;;;18.80;99.90;;;;;;5010349;28;20207;-68
2021/07/13 03:28:00;;;;;;;13.43;9.97;;;18.90;99.90;;;;;;5029474;28;20667;-68
2021/07/13 03:30:26;;;;;;;15.40;11.80;;;18.90;99.90;;;;;;5034826;28;20719;-68
2021/07/13 03:32:53;;;;;;;13.23;10.10;;;19.00;99.90;;;;;;5035631;28;20253;-68
2021/07/13 03:35:20;;;;;;;12.67;9.97;;;19.10;99.90;;;;;;5035484;28;20178;-68
2021/07/13 03:37:50;;;;;;;14.87;9.80;;;19.10;99.90;;;;;;5035773;28;20285;-68
2021/07/13 03:40:17;;;;;;;13.23;9.57;;;19.10;99.90;;;;;;5038151;28;20239;-68
2021/07/13 03:42:44;;;;;;;12.27;9.77;;;19.20;99.90;;;;;;5039692;28;20170;-67
2021/07/13 03:45:15;;;;;;;16.40;10.90;;;19.30;99.90;;;;;;5038454;28;20212;-68
2021/07/13 03:47:45;;;;;;;11.80;9.00;;;20.00;99.90;;;;;;5035744;28;20246;-68
2021/07/13 03:50:11;;;;;;;11.23;8.63;;;20.70;99.90;;;;;;5037614;28;20179;-68
2021/07/13 03:52:36;;;;;;;11.33;8.70;;;21.20;99.90;;;;;;5031004;28;20184;-68
2021/07/13 03:55:02;;;;;;;11.77;8.50;;;21.60;99.90;;;;;;5020990;28;20218;-68
2021/07/13 03:57:30;;;;;;;13.60;8.20;;;22.10;99.90;;;;;;5018830;28;20203;-67
2021/07/13 03:59:55;;;;;;;9.63;8.63;;;22.50;99.90;;;;;;5018164;28;20187;-69
2021/07/13 04:02:21;;;;;;;10.90;7.80;;;22.60;99.90;;;;;;5035752;28;20179;-68
2021/07/13 04:04:46;;;;;;;10.03;7.77;;;22.40;99.90;;;;;;5035091;28;20288;-68
2021/07/13 04:07:12;;;;;;;9.87;7.27;;;22.70;99.90;;;;;;5035589;28;20207;-69
2021/07/13 04:09:37;;;;;;;8.83;7.33;;;22.90;99.90;;;;;;5037420;28;20624;-68
2021/07/13 04:12:03;;;;;;;10.13;7.73;;;22.70;99.90;;;;;;5040088;28;20183;-67
2021/07/13 04:14:29;;;;;;;9.43;8.00;;;22.70;99.90;;;;;;5040244;28;20204;-67
2021/07/13 04:16:54;;;;;;;14.37;8.33;;;22.30;99.90;;;;;;5040148;28;20200;-69
2021/07/13 04:19:20;;;;;;;15.70;7.83;;;22.10;99.90;;;;;;5040179;28;20199;-70
2021/07/13 04:21:45;;;;;;;13.17;7.87;;;21.80;99.90;;;;;;5035463;28;20193;-69
2021/07/13 04:24:11;;;;;;;13.90;7.80;;;21.70;99.90;;;;;;5028203;28;20198;-69
2021/07/13 04:26:36;;;;;;;14.80;7.97;;;21.50;99.90;;;;;;5014703;28;20193;-69
2021/07/13 04:29:02;;;;;;;10.07;8.43;;;21.30;99.90;;;;;;5014707;28;20256;-69
2021/07/13 04:31:27;;;;;;;11.03;7.83;;;21.20;99.90;;;;;;5016579;28;20176;-69
2021/07/13 04:33:53;;;;;;;12.07;8.67;;;21.10;99.90;;;;;;5015460;28;20176;-69
2021/07/13 04:36:18;;;;;;;10.10;8.47;;;20.90;99.90;;;;;;5035349;28;20174;-69
2021/07/13 04:38:44;;;;;;;12.83;8.57;;;20.80;99.90;;;;;;5035010;28;20179;-69
2021/07/13 04:41:09;;;;;;;13.53;9.13;;;20.60;99.90;;;;;;5032948;28;20567;-69
2021/07/13 04:43:35;;;;;;;18.37;10.73;;;20.50;99.90;;;;;;5034980;28;20213;-69
2021/07/13 04:46:00;;;;;;;11.50;9.33;;;20.50;99.90;;;;;;5034540;28;20179;-69
2021/07/13 04:48:26;;;;;;;10.47;9.33;;;20.60;99.90;;;;;;5034243;28;20205;-69
2021/07/13 04:50:51;;;;;;;10.77;9.63;;;20.60;99.90;;;;;;5034377;28;20187;-69
2021/07/13 04:53:17;;;;;;;9.90;8.40;;;20.60;99.90;;;;;;5029841;28;20209;-69
2021/07/13 04:55:42;;;;;;;11.40;8.83;;;20.60;99.90;;;;;;5037020;28;20182;-69
2021/07/13 04:58:08;;;;;;;12.90;9.03;;;20.60;99.90;;;;;;5034746;28;20225;-69
2021/07/13 05:00:34;;;;;;;16.37;9.77;;;20.60;99.90;;;;;;5034378;28;20171;-67
2021/07/13 05:02:59;;;;;;;10.37;9.30;;;20.70;99.90;;;;;;5033616;28;20556;-67
2021/07/13 05:05:25;;;;;;;13.37;9.30;;;20.90;99.90;;;;;;5033813;28;20419;-68
2021/07/13 05:07:51;;;;;;;10.23;9.23;;;21.10;99.90;;;;;;5033681;28;20709;-68
2021/07/13 05:10:17;;;;;;;10.33;9.27;;;21.20;99.90;;;;;;5034232;28;20565;-68
2021/07/13 05:12:43;;;;;;;12.67;9.60;;;21.10;99.90;;;;;;5033662;28;20578;-68
2021/07/13 05:15:11;;;;;;;14.43;9.90;;;21.20;99.90;;;;;;5033933;28;20194;-69
2021/07/13 05:17:40;;;;;;;14.07;11.17;;;21.20;99.90;;;;;;5033674;28;20685;-69
2021/07/13 05:20:09;;;;;;;13.07;9.87;;;21.20;99.90;;;;;;5034116;28;20170;-69
2021/07/13 05:22:35;;;;;;;13.80;9.90;;;21.30;99.90;;;;;;5028563;28;20179;-68
2021/07/13 05:25:02;;;;;;;14.70;10.47;;;21.20;99.90;;;;;;5033742;28;20236;-69
2021/07/13 05:27:29;;;;;;;12.57;10.20;;;21.30;99.90;;;;;;5034186;28;20195;-69
2021/07/13 05:29:56;;;;;;;14.57;11.80;;;21.50;99.90;;;;;;5033804;28;20176;-69
2021/07/13 05:32:22;;;;;;;16.30;11.00;;;21.60;99.90;;;;;;5033988;28;20230;-69
2021/07/13 05:34:47;;;;;;;14.43;11.07;;;21.50;99.90;;;;;;5033661;28;20182;-66
2021/07/13 05:37:13;;;;;;;11.97;10.87;;;21.70;99.90;;;;;;5033680;28;20203;-68
2021/07/13 05:39:38;;;;;;;12.07;10.87;;;21.70;99.90;;;;;;5033680;28;20262;-68
2021/07/13 05:42:04;;;;;;;15.57;11.53;;;21.90;99.90;;;;;;5033671;28;20233;-69
2021/07/13 05:44:30;;;;;;;12.93;11.47;;;22.10;99.90;;;;;;5033177;28;20202;-68
2021/07/13 05:46:55;;;;;;;12.00;10.87;;;22.20;99.90;;;;;;5032199;28;20191;-68
2021/07/13 05:49:21;;;;;;;12.97;11.67;;;22.30;99.90;;;;;;5033626;28;20183;-68
2021/07/13 05:51:46;;;;;;;13.77;12.20;;;22.20;99.90;;;;;;5033492;28;20207;-68
2021/07/13 05:54:13;;;;;;;13.40;12.10;;;22.30;99.90;;;;;;5032867;28;20639;-68
2021/07/13 05:56:39;;;;;;;13.57;12.27;;;22.50;99.90;;;;;;5033197;28;20225;-69
2021/07/13 05:59:05;;;;;;;14.00;12.60;;;22.70;99.90;;;;;;5030148;28;20692;-68
2021/07/13 06:01:30;;;;;;;13.30;12.07;;;22.80;99.90;;;;;;5026436;28;20210;-69
2021/07/13 06:03:56;;;;;;;14.37;12.80;;;22.90;99.90;;;;;;5037476;28;20570;-68
2021/07/13 06:06:22;;;;;;;12.70;11.57;;;22.90;99.90;;;;;;5024949;28;20170;-68
2021/07/13 06:08:47;;;;;;;14.67;13.17;;;22.90;99.90;;;;;;5033094;28;20186;-69
2021/07/13 06:11:13;;;;;;;13.30;12.10;;;23.10;99.90;;;;;;5032895;28;20169;-70
2021/07/13 06:13:39;;;;;;;14.03;12.60;;;23.30;99.90;;;;;;5032539;28;20171;-68
2021/07/13 06:16:04;;;;;;;15.63;13.30;;;23.40;99.90;;;;;;5033503;28;20171;-68
2021/07/13 06:18:30;;;;;;;14.32;12.95;;;23.70;99.90;;;;;;5033950;28;20196;-68
2021/07/13 06:20:55;;;;;;;14.52;13.25;;;23.80;99.90;;;;;;5033750;28;20184;-68
2021/07/13 06:23:21;;;;;;;15.38;13.95;;;23.50;99.90;;;;;;5032750;28;20171;-68
2021/07/13 06:25:46;;;;;;;20.67;13.98;;;23.50;99.90;;;;;;5032881;28;20204;-68
2021/07/13 06:28:12;;;;;;;15.35;13.93;;;23.60;99.90;;;;;;5032573;28;20664;-68
2021/07/13 06:30:39;;;;;;;14.57;13.20;;;23.60;99.90;;;;;;5032542;28;20199;-68
2021/07/13 06:33:05;;;;;;;15.05;13.75;;;23.70;99.90;;;;;;5032226;28;20184;-68
2021/07/13 06:35:30;;;;;;;15.38;14.02;;;23.60;99.90;;;;;;5030988;28;20177;-68
2021/07/13 06:37:57;;;;;;;15.85;14.45;;;23.70;99.90;;;;;;5032517;28;20201;-68
2021/07/13 06:40:23;;;;;;;15.75;14.30;;;23.50;99.90;;;;;;5031961;28;20172;-69
2021/07/13 06:42:48;;;;;;;17.10;15.50;;;23.30;99.90;;;;;;5033251;28;20203;-68
2021/07/13 06:45:14;;;;;;;18.25;16.65;;;23.30;99.90;;;;;;5033817;28;20216;-69
2021/07/13 06:47:40;;;;;;;18.17;16.58;;;23.30;99.90;;;;;;5034103;28;20191;-69
2021/07/13 06:50:06;;;;;;;18.13;16.52;;;23.20;99.90;;;;;;5032768;28;20176;-70
2021/07/13 06:52:32;;;;;;;20.02;18.27;;;23.10;99.90;;;;;;5031122;28;20168;-69
2021/07/13 06:55:01;;;;;;;19.25;17.35;;;23.10;99.90;;;;;;5031831;28;20258;-69
2021/07/13 06:57:26;;;;;;;20.48;18.27;;;22.90;99.90;;;;;;5032173;28;20278;-69
2021/07/13 06:59:52;;;;;;;20.73;18.80;;;22.80;99.90;;;;;;5032085;28;20270;-69
2021/07/13 07:02:17;;;;;;;20.97;18.77;;;22.80;99.90;;;;;;5032306;28;20486;-69
2021/07/13 07:04:43;;;;;;;21.07;19.03;;;22.70;99.90;;;;;;5033777;28;20197;-68
2021/07/13 07:07:09;;;;;;;20.60;18.60;;;22.70;99.90;;;;;;5035827;28;20210;-70
2021/07/13 07:09:34;;;;;;;21.97;19.90;;;22.50;99.90;;;;;;5034916;28;20179;-68
2021/07/13 07:11:59;;;;;;;21.63;19.43;;;22.50;99.90;;;;;;5034945;28;20172;-69
2021/07/13 07:14:25;;;;;;;20.07;17.63;;;22.60;99.90;;;;;;5034985;28;20209;-70
2021/07/13 07:16:50;;;;;;;20.17;17.90;;;22.70;99.90;;;;;;5036136;28;20213;-69
2021/07/13 07:19:16;;;;;;;20.50;18.60;;;23.10;99.90;;;;;;5035079;28;20294;-68
2021/07/13 07:21:41;;;;;;;19.07;17.17;;;23.40;99.90;;;;;;5027764;28;20205;-69
2021/07/13 07:24:07;;;;;;;20.48;18.67;;;23.80;99.90;;;;;;5027925;28;20208;-69
2021/07/13 07:26:33;;;;;;;19.38;17.67;;;23.80;99.90;;;;;;5015030;28;20164;-71
2021/07/13 07:28:58;;;;;;;19.50;17.70;;;24.10;99.90;;;;;;5015002;28;20179;-68
2021/07/13 07:31:24;;;;;;;19.98;17.83;;;24.50;99.90;;;;;;5015975;28;20177;-68
2021/07/13 07:33:49;;;;;;;19.20;17.35;;;24.40;99.90;;;;;;5015068;28;20174;-68
2021/07/13 07:36:15;;;;;;;19.42;17.55;;;24.30;99.90;;;;;;5018574;28;20238;-70
2021/07/13 07:38:40;;;;;;;18.75;16.85;;;24.40;99.90;;;;;;5035828;28;20171;-68
2021/07/13 07:41:07;;;;;;;19.27;17.50;;;24.60;99.90;;;;;;5035883;28;20634;-68
2021/07/13 07:43:32;;;;;;;18.95;17.20;;;24.60;99.90;;;;;;5036052;28;20187;-68
2021/07/13 07:45:58;;;;;;;19.40;16.95;;;24.80;99.90;;;;;;5036938;28;20288;-69
2021/07/13 07:48:24;;;;;;;19.45;17.58;;;25.00;99.90;;;;;;5036108;28;20193;-69
2021/07/13 07:50:49;;;;;;;16.80;15.30;;;25.30;99.90;;;;;;5035644;28;20174;-68
2021/07/13 07:53:15;;;;;;;18.65;16.70;;;25.60;99.90;;;;;;5034953;28;20188;-69
2021/07/13 07:55:40;;;;;;;16.40;14.95;;;25.70;99.90;;;;;;5036097;28;20535;-69
2021/07/13 07:58:06;;;;;;;16.60;15.10;;;25.70;99.90;;;;;;5036204;28;20297;-69
2021/07/13 08:00:31;;;;;;;17.65;15.95;;;25.60;99.90;;;;;;5026337;28;20174;-68
2021/07/13 08:02:57;;;;;;;17.45;15.82;;;25.40;99.90;;;;;;5025479;28;20181;-68
2021/07/13 08:05:26;;;;;;;17.55;15.80;;;25.30;99.90;;;;;;5035590;28;20206;-69
2021/07/13 08:07:52;;;;;;;16.85;15.35;;;25.30;99.90;;;;;;5035675;28;20217;-71
2021/07/13 08:10:18;;;;;;;16.88;15.38;;;25.10;99.90;;;;;;5016302;28;20301;-68
2021/07/13 08:12:44;;;;;;;17.33;15.23;;;25.10;99.90;;;;;;5014821;28;20201;-70
2021/07/13 08:15:11;;;;;;;16.77;14.95;;;25.20;99.90;;;;;;5015894;28;20171;-67
2021/07/13 08:17:37;;;;;;;16.90;15.38;;;25.60;99.90;;;;;;5015590;28;20233;-68
2021/07/13 08:20:04;;;;;;;17.15;15.65;;;25.50;99.90;;;;;;5019276;28;20194;-70
2021/07/13 08:22:32;;;;;;;17.40;15.82;;;25.60;99.90;;;;;;5028326;28;20264;-69
2021/07/13 08:24:59;;;;;;;16.35;14.77;;;25.40;99.90;;;;;;5034725;28;20204;-68
2021/07/13 08:27:24;;;;;;;17.00;15.30;;;25.20;99.90;;;;;;5015403;28;20213;-68
2021/07/13 08:29:50;;;;;;;15.82;14.23;;;25.20;99.90;;;;;;5015512;28;20635;-69
2021/07/13 08:32:16;;;;;;;17.30;15.52;;;25.30;99.90;;;;;;5027212;28;20184;-69
2021/07/13 08:34:41;;;;;;;16.77;15.27;;;25.70;99.90;;;;;;5034810;28;20174;-69
2021/07/13 08:37:07;;;;;;;15.95;14.45;;;25.70;99.90;;;;;;5034808;28;20243;-66
2021/07/13 08:39:32;;;;;;;16.02;14.63;;;25.70;99.90;;;;;;5033928;28;20181;-66
2021/07/13 08:41:59;;;;;;;15.57;14.13;;;25.70;99.90;;;;;;5034255;28;20185;-66
2021/07/13 08:44:27;;;;;;;16.27;14.77;;;25.50;99.90;;;;;;5034483;28;20212;-67
2021/07/13 08:46:52;;;;;;;15.88;13.57;;;25.70;99.90;;;;;;5034885;28;20194;-68
2021/07/13 08:49:20;;;;;;;16.27;14.63;;;25.90;99.90;;;;;;5035482;28;20182;-71
2021/07/13 08:51:47;;;;;;;15.90;14.40;;;26.10;99.90;;;;;;5034441;28;20175;-70
2021/07/13 08:54:13;;;;;;;15.95;14.18;;;26.20;99.90;;;;;;5034147;28;20184;-72
2021/07/13 08:56:38;;;;;;;14.45;13.02;;;26.20;99.90;;;;;;5034370;28;20225;-69
2021/07/13 08:59:05;;;;;;;13.63;12.43;;;26.30;99.90;;;;;;5030897;28;20619;-67
2021/07/13 09:01:31;;;;;;;14.07;12.52;;;26.30;99.90;;;;;;5032239;28;20181;-68
2021/07/13 09:04:01;;;;;;;19.08;13.93;;;26.20;99.90;;;;;;5034355;28;20256;-68
2021/07/13 09:06:29;;;;;;;14.10;12.80;;;26.30;99.90;;;;;;5034453;28;20652;-67
2021/07/13 09:08:55;;;;;;;13.13;12.02;;;26.60;99.90;;;;;;5033118;28;20168;-68
2021/07/13 09:11:22;;;;;;;13.35;12.25;;;26.50;99.90;;;;;;5034396;28;20178;-70
2021/07/13 09:13:50;;;;;;;13.60;12.20;;;26.30;99.90;;;;;;5034137;28;20231;-69
2021/07/13 09:16:24;;;;;;;13.73;12.45;;;26.40;99.90;;;;;;5034197;28;20240;-68
2021/07/13 09:18:55;;;;;;;12.82;11.82;;;26.60;99.90;;;;;;5034501;28;20178;-67
2021/07/13 09:21:38;;;;;;;11.55;10.50;;;26.50;99.90;;;;;;5034968;28;20555;-66
2021/07/13 09:24:17;;;;;;;12.43;11.43;;;26.50;99.90;;;;;;5034024;28;20198;-67
2021/07/13 09:26:56;;;;;;;12.63;11.30;;;26.70;99.90;;;;;;5035724;28;20221;-67
2021/07/13 09:29:33;;;;;;;11.63;10.52;;;26.70;99.90;;;;;;5035201;28;20166;-67
2021/07/13 09:32:24;;;;;;;12.20;11.10;;;26.70;99.90;;;;;;5034601;28;20170;-67
2021/07/13 09:35:02;;;;;;;11.15;10.07;;;26.60;99.90;;;;;;5034228;28;20220;-68
2021/07/13 09:37:34;;;;;;;11.40;10.30;;;26.80;99.90;;;;;;5034272;28;20217;-67
2021/07/13 09:40:18;;;;;;;11.05;9.95;;;27.10;99.90;;;;;;5034913;28;20692;-67
2021/07/13 09:42:54;;;;;;;10.68;9.77;;;27.00;99.90;;;;;;5035659;28;20182;-66
2021/07/13 09:45:22;;;;;;;9.27;8.48;;;26.90;99.90;;;;;;5023531;28;20358;-66
2021/07/13 09:47:49;;;;;;;9.25;8.30;;;27.00;99.90;;;;;;5036460;28;20214;-66
2021/07/13 09:50:31;;;;;;;9.23;8.48;;;27.20;99.90;;;;;;5050946;28;20174;-66
2021/07/13 09:52:59;;;;;;;10.15;8.75;;;27.20;99.90;;;;;;5037993;28;20182;-66
2021/07/13 09:55:25;;;;;;;8.60;7.70;;;27.40;99.90;;;;;;5034520;28;20181;-66
2021/07/13 09:57:50;;;;;;;8.82;8.02;;;27.30;99.90;;;;;;5034072;28;20201;-66
2021/07/13 10:00:16;;;;;;;8.40;7.65;;;27.40;99.90;;;;;;5033752;28;20646;-66
2021/07/13 10:02:42;;;;;;;8.75;7.97;;;27.80;99.90;;;;;;5042389;28;20295;-66
2021/07/13 10:05:08;;;;;;;8.43;7.40;;;27.60;99.90;;;;;;5039501;28;20198;-65
2021/07/13 10:07:36;;;;;;;8.68;7.78;;;27.80;99.90;;;;;;5036475;28;20232;-67
2021/07/13 10:10:03;;;;;;;8.50;7.70;;;27.70;99.90;;;;;;5034075;28;20189;-67
2021/07/13 10:12:30;;;;;;;7.57;6.85;;;27.80;99.90;;;;;;5037231;28;20174;-67
2021/07/13 10:14:57;;;;;;;7.43;6.82;;;28.00;99.90;;;;;;5036856;28;20220;-67
2021/07/13 10:17:28;;;;;;;7.18;6.57;;;28.10;99.90;;;;;;5035810;28;20712;-68
2021/07/13 10:20:03;;;;;;;7.32;6.72;;;27.80;99.90;;;;;;5038934;28;20182;-66
2021/07/13 10:22:30;;;;;;;6.63;6.13;;;27.70;99.90;;;;;;5034543;28;20165;-67
2021/07/13 10:24:59;;;;;;;7.30;6.60;;;27.70;99.90;;;;;;5034396;28;20217;-67
2021/07/13 10:27:33;;;;;;;8.80;8.00;;;27.50;99.90;;;;;;5033383;28;20221;-68
2021/07/13 10:30:01;;;;;;;9.98;9.05;;;27.80;99.90;;;;;;5034797;28;20173;-67
2021/07/13 10:32:26;;;;;;;8.93;8.02;;;27.80;99.90;;;;;;5035826;28;20311;-69
2021/07/13 10:34:55;;;;;;;8.93;8.10;;;27.80;99.90;;;;;;5035470;28;20182;-66
2021/07/13 10:37:41;;;;;;;8.32;7.43;;;27.60;99.90;;;;;;5034636;28;20198;-67
2021/07/13 10:40:33;;;;;;;7.38;6.70;;;27.90;99.90;;;;;;5033322;28;20174;-67
2021/07/13 10:43:15;;;;;;;7.80;6.38;;;27.90;99.90;;;;;;5034788;28;20576;-68
2021/07/13 10:45:44;;;;;;;7.50;6.88;;;27.90;99.90;;;;;;5034949;28;20209;-67
2021/07/13 10:48:15;;;;;;;7.28;6.57;;;27.90;99.90;;;;;;5034569;28;20178;-67
2021/07/13 10:50:59;;;;;;;7.20;6.70;;;27.90;99.90;;;;;;5035031;28;20537;-67
2021/07/13 10:53:30;;;;;;;7.95;6.63;;;28.20;99.90;;;;;;5034503;28;20174;-67
2021/07/13 10:56:04;;;;;;;8.63;7.93;;;28.20;99.90;;;;;;5035519;28;20201;-67
2021/07/13 10:58:36;;;;;;;8.70;7.90;;;28.30;99.90;;;;;;5034950;28;20553;-67
2021/07/13 11:01:08;;;;;;;6.88;6.18;;;28.60;99.90;;;;;;5035160;28;20182;-67
2021/07/13 11:03:37;;;;;;;9.63;7.55;;;28.30;99.90;;;;;;5035101;28;20177;-67
2021/07/13 11:06:07;;;;;;;8.20;7.50;;;28.10;99.90;;;;;;5034614;28;20210;-67
2021/07/13 11:08:39;;;;;;;8.32;7.72;;;28.00;99.90;;;;;;5034809;28;20221;-67
2021/07/13 11:11:09;;;;;;;8.95;8.25;;;28.10;99.90;;;;;;5035160;28;20654;-67
2021/07/13 11:13:34;;;;;;;10.05;9.05;;;28.20;99.90;;;;;;5035297;28;20174;-70
2021/07/13 11:16:00;;;;;;;9.10;8.30;;;28.60;99.90;;;;;;5039513;28;20193;-67
2021/07/13 11:18:31;;;;;;;9.10;8.30;;;28.60;99.90;;;;;;5034947;28;20586;-66
2021/07/13 11:21:18;;;;;;;9.63;8.77;;;28.60;99.90;;;;;;5033776;28;20680;-65
2021/07/13 11:23:46;;;;;;;9.05;8.23;;;28.60;99.90;;;;;;5035597;28;20632;-68
2021/07/13 11:26:14;;;;;;;9.52;8.55;;;28.50;99.90;;;;;;5036690;28;20553;-67
2021/07/13 11:28:48;;;;;;;9.48;8.45;;;28.60;99.90;;;;;;5034899;28;20170;-67
2021/07/13 11:31:28;;;;;;;8.30;7.60;;;28.60;99.90;;;;;;5034855;28;20194;-67
2021/07/13 11:34:00;;;;;;;9.50;8.68;;;28.50;99.90;;;;;;5036971;28;20174;-67
2021/07/13 11:36:30;;;;;;;8.85;8.15;;;28.40;99.90;;;;;;5020210;28;20189;-67
2021/07/13 11:39:01;;;;;;;9.57;8.73;;;28.30;99.90;;;;;;5039553;28;20177;-66
2021/07/13 11:41:27;;;;;;;8.55;7.68;;;28.40;99.90;;;;;;5042730;28;20174;-67
2021/07/13 11:43:58;;;;;;;7.75;7.05;;;28.50;99.90;;;;;;5041525;28;20205;-67
2021/07/13 11:46:26;;;;;;;7.72;7.00;;;28.50;99.90;;;;;;5051874;28;20174;-66
2021/07/13 11:49:06;;;;;;;8.80;6.75;;;28.70;99.90;;;;;;5053144;28;20175;-66
2021/07/13 11:51:34;;;;;;;7.15;6.45;;;28.80;99.90;;;;;;5055711;28;20621;-66
2021/07/13 11:54:07;;;;;;;5.93;5.40;;;28.80;99.90;;;;;;5064014;28;20181;-68
2021/07/13 11:56:35;;;;;;;6.00;5.53;;;29.00;99.90;;;;;;5076766;28;20220;-67
2021/07/13 11:59:02;;;;;;;6.05;5.55;;;29.10;99.90;;;;;;5070849;28;20221;-66
2021/07/13 12:01:30;;;;;;;5.97;5.18;;;29.10;99.90;;;;;;5066416;28;20178;-67
2021/07/13 12:04:07;;;;;;;5.13;4.65;;;29.40;99.90;;;;;;5056637;28;20174;-67
2021/07/13 12:06:34;;;;;;;7.57;6.88;;;29.30;99.90;;;;;;5058026;28;20227;-66
2021/07/13 12:09:04;;;;;;;5.32;4.90;;;29.30;99.90;;;;;;5056970;28;20176;-66
2021/07/13 12:11:31;;;;;;;5.78;4.78;;;29.10;99.90;;;;;;5057068;28;20209;-65
2021/07/13 12:13:59;;;;;;;4.97;4.47;;;28.90;99.90;;;;;;5056591;28;20170;-66
2021/07/13 12:16:29;;;;;;;5.65;5.05;;;28.80;99.90;;;;;;5057783;28;20506;-67
2021/07/13 12:18:57;;;;;;;5.38;4.65;;;28.90;99.90;;;;;;5057685;28;20186;-66
2021/07/13 12:21:23;;;;;;;6.13;5.22;;;28.90;99.90;;;;;;5057573;28;20170;-65
2021/07/13 12:23:51;;;;;;;5.20;4.57;;;28.80;99.90;;;;;;5056804;28;20186;-66
2021/07/13 12:26:29;;;;;;;5.68;5.03;;;28.80;99.90;;;;;;5056921;28;20273;-65
2021/07/13 12:29:11;;;;;;;5.68;5.28;;;28.90;99.90;;;;;;5057786;28;20174;-66
2021/07/13 12:31:49;;;;;;;5.47;4.97;;;29.10;99.90;;;;;;5058179;28;20205;-67
2021/07/13 12:34:39;;;;;;;5.28;4.60;;;28.80;99.90;;;;;;5056481;28;20277;-67
2021/07/13 12:37:13;;;;;;;4.88;4.47;;;28.80;99.90;;;;;;5047666;28;20217;-66
2021/07/13 12:39:45;;;;;;;6.20;4.32;;;28.90;99.90;;;;;;5049063;28;20178;-66
2021/07/13 12:42:21;;;;;;;4.18;3.88;;;29.30;99.90;;;;;;5056439;28;20178;-67